Kezdőlap
METAR-TAF:

METAR-TAF

Repülőterek :

Iguaçu, Argentína

földrajzi szélesség: 25-44S, földrajzi hosszúság: 054-28W, magasság: 270 m

Jelenlegi meteorológiai megfigyelések

A jelentés 32 perccel ezelõtt készült, 11:00 UTC
Észak-északkeleti szél 3 kt, északi és kelet-északkeleti között változik
Hőmérséklet 21°C
Páratartalom 100%
Légköri nyomás 1014 hPa
Látótávolság 10 km, vagy több
felhőtlen 1500 m magasságban, és nincs gomolyfelhõ

METAR: SARI 251100Z 02003KT 350V070 CAVOK 21/21 Q1014

Idő: 08:32 (11:32 UTC)

Előrejelzés

A jelentés 6 órával és 32 perccel ezelõtt készült, 05:00 UTC
Az előrejelzés 25-én 06 óra UTC és 26-én 06 óra UTC között érvényes
Északkeleti szél 5 kt
Látótávolság: 8000 m
Szakadozott felhőzet 2500 lábon
25-én 08 óra UTC és 25-én 12 óra UTC között ideiglenes
Látótávolság: 4000 m
Szakadozott felhőzet 1000 lábon
Párásság,

TAF: SARI 250500Z 2506/2606 05005KT 8000 BKN025 TX31/2519Z TN19/2509Z TEMPO 2508/2512 4000 BR BKN010

Meteorológiai megfigyelések és előrejelzések több, mint 4000 repülőtéren (METAR és TAF jelentéseket).

A térképen piros és sárga pontok jelzik az elérhető meteorológiai állomásokat.

Mozgassa az egeret a pont fölött, hogy megjelenjen az állomás neve.

Azután kattintson az időjárási megfigyelések és előrejelzések megtekintéséhez.

A térkép megváltoztatása: kattintson a fekete keresztel jelölt zöld gombra ráközelítéshez, a vonallal jelölt zöld gombra távolításhoz, vagy a zöld nyilakra a szomszédos térképek eléréséhez.


METAR-TAF: